createdAt,value
2017-05-02T00:00:00.850Z,813.45
2017-05-02T00:00:05.325Z,813.46
2017-05-02T00:00:09.515Z,813.43
2017-05-02T00:00:13.939Z,813.4
2017-05-02T00:00:18.380Z,813.43
2017-05-02T00:00:22.813Z,813.44
2017-05-02T00:00:27.240Z,813.42
2017-05-02T00:00:31.554Z,813.41
2017-05-02T00:00:35.870Z,813.42
2017-05-02T00:00:40.176Z,813.4
2017-05-02T00:00:44.489Z,813.43
2017-05-02T00:00:48.683Z,813.44
2017-05-02T00:00:53.147Z,813.42
2017-05-02T00:00:57.584Z,813.45
2017-05-02T00:01:02.009Z,813.37
2017-05-02T00:01:06.436Z,813.39
2017-05-02T00:01:10.875Z,813.42
2017-05-02T00:01:15.305Z,813.39
2017-05-02T00:01:19.616Z,813.41
2017-05-02T00:01:24.041Z,813.38
2017-05-02T00:01:28.472Z,813.36
2017-05-02T00:01:32.914Z,813.37
2017-05-02T00:01:37.218Z,813.38
2017-05-02T00:01:41.407Z,813.35
2017-05-02T00:01:45.865Z,813.37
2017-05-02T00:01:50.303Z,813.35
2017-05-02T00:01:54.728Z,813.38
2017-05-02T00:01:59.153Z,813.34
2017-05-02T00:02:03.587Z,813.34
2017-05-02T00:02:07.780Z,813.33
2017-05-02T00:02:12.203Z,813.33
2017-05-02T00:02:16.395Z,813.36
2017-05-02T00:02:20.824Z,813.39
2017-05-02T00:02:25.251Z,813.35
2017-05-02T00:02:29.674Z,813.33
2017-05-02T00:02:33.999Z,813.36
2017-05-02T00:02:38.322Z,813.34
2017-05-02T00:02:42.638Z,813.33
2017-05-02T00:02:47.067Z,813.34
2017-05-02T00:02:51.380Z,813.38
2017-05-02T00:02:55.821Z,813.37
2017-05-02T00:03:00.253Z,813.32
2017-05-02T00:03:04.682Z,813.3
2017-05-02T00:03:09.116Z,813.34
2017-05-02T00:03:13.433Z,813.32
2017-05-02T00:03:17.871Z,813.34
2017-05-02T00:03:22.305Z,813.28
2017-05-02T00:03:26.738Z,813.29
2017-05-02T00:03:31.052Z,813.27
2017-05-02T00:03:35.488Z,813.27
2017-05-02T00:03:39.797Z,813.29
2017-05-02T00:03:44.110Z,813.27
2017-05-02T00:03:48.538Z,813.31
2017-05-02T00:03:52.863Z,813.29
2017-05-02T00:03:57.304Z,813.31
2017-05-02T00:04:01.836Z,813.29
2017-05-02T00:04:06.155Z,813.29
2017-05-02T00:04:10.588Z,813.29
2017-05-02T00:04:14.783Z,813.31
2017-05-02T00:04:19.213Z,813.29
2017-05-02T00:04:23.526Z,813.31
2017-05-02T00:04:27.881Z,813.29
2017-05-02T00:04:32.305Z,813.31
2017-05-02T00:04:36.739Z,813.33
2017-05-02T00:04:41.044Z,813.3
2017-05-02T00:04:45.483Z,813.3
2017-05-02T00:04:49.677Z,813.3
2017-05-02T00:04:54.103Z,813.32
2017-05-02T00:04:58.535Z,813.33
2017-05-02T00:05:02.970Z,813.3
2017-05-02T00:05:07.159Z,813.29
2017-05-02T00:05:11.471Z,813.31
2017-05-02T00:05:15.780Z,813.31
2017-05-02T00:05:19.973Z,813.33
2017-05-02T00:05:24.426Z,813.31
2017-05-02T00:05:28.848Z,813.35
2017-05-02T00:05:33.278Z,813.28
2017-05-02T00:05:37.591Z,813.31
2017-05-02T00:05:41.948Z,813.3
2017-05-02T00:05:46.255Z,813.32
2017-05-02T00:05:50.688Z,813.32
2017-05-02T00:05:55.113Z,813.35
2017-05-02T00:05:59.550Z,813.31
2017-05-02T00:06:04.024Z,813.32
2017-05-02T00:06:08.219Z,813.29
2017-05-02T00:06:12.411Z,813.29
2017-05-02T00:06:16.729Z,813.29
2017-05-02T00:06:21.037Z,813.29
2017-05-02T00:06:25.461Z,813.32
2017-05-02T00:06:29.899Z,813.3
2017-05-02T00:06:34.329Z,813.28
2017-05-02T00:06:38.641Z,813.28
2017-05-02T00:06:42.951Z,813.26
2017-05-02T00:06:47.275Z,813.26
2017-05-02T00:06:51.715Z,813.31
2017-05-02T00:06:56.146Z,813.29
2017-05-02T00:07:00.575Z,813.26
2017-05-02T00:07:05.008Z,813.31
2017-05-02T00:07:09.324Z,813.3
2017-05-02T00:07:13.512Z,813.3
2017-05-02T00:07:17.942Z,813.3
2017-05-02T00:07:22.373Z,813.28
2017-05-02T00:07:26.798Z,813.3
2017-05-02T00:07:31.238Z,813.31
2017-05-02T00:07:35.553Z,813.33
2017-05-02T00:07:40.010Z,813.36
2017-05-02T00:07:44.442Z,813.3
2017-05-02T00:07:48.761Z,813.35
2017-05-02T00:07:53.191Z,813.31
2017-05-02T00:07:57.640Z,813.34
2017-05-02T00:08:01.949Z,813.34
2017-05-02T00:08:06.379Z,813.35
2017-05-02T00:08:10.689Z,813.34
2017-05-02T00:08:15.013Z,813.31
2017-05-02T00:08:19.484Z,813.35
2017-05-02T00:08:23.926Z,813.3
2017-05-02T00:08:28.361Z,813.31
2017-05-02T00:08:32.811Z,813.29
2017-05-02T00:08:37.250Z,813.36
2017-05-02T00:08:41.684Z,813.34
2017-05-02T00:08:45.996Z,813.35
2017-05-02T00:08:50.436Z,813.34
2017-05-02T00:08:54.872Z,813.3
2017-05-02T00:08:59.305Z,813.35
2017-05-02T00:09:03.731Z,813.32
2017-05-02T00:09:08.045Z,813.31
2017-05-02T00:09:12.523Z,813.34
2017-05-02T00:09:16.959Z,813.35
2017-05-02T00:09:21.384Z,813.35
2017-05-02T00:09:25.820Z,813.35
2017-05-02T00:09:30.248Z,813.36
2017-05-02T00:09:34.553Z,813.37
2017-05-02T00:09:38.857Z,813.34
2017-05-02T00:09:43.296Z,813.33
2017-05-02T00:09:47.718Z,813.31
2017-05-02T00:09:52.026Z,813.34
2017-05-02T00:09:56.336Z,813.31
2017-05-02T00:10:00.780Z,813.31
2017-05-02T00:10:04.973Z,813.32
2017-05-02T00:10:09.164Z,813.34
2017-05-02T00:10:13.601Z,813.32
2017-05-02T00:10:18.030Z,813.31
2017-05-02T00:10:22.452Z,813.33
2017-05-02T00:10:26.894Z,813.31
2017-05-02T00:10:31.211Z,813.3
2017-05-02T00:10:35.529Z,813.32
2017-05-02T00:10:39.953Z,813.3
2017-05-02T00:10:44.264Z,813.34
2017-05-02T00:10:48.579Z,813.31
2017-05-02T00:10:52.892Z,813.29
2017-05-02T00:10:57.197Z,813.27
2017-05-02T00:11:01.623Z,813.29
2017-05-02T00:11:05.988Z,813.3
2017-05-02T00:11:10.417Z,813.3
2017-05-02T00:11:14.728Z,813.26
2017-05-02T00:11:19.161Z,813.29
2017-05-02T00:11:23.601Z,813.28
2017-05-02T00:11:28.032Z,813.26
2017-05-02T00:11:32.468Z,813.24
2017-05-02T00:11:36.908Z,813.25
2017-05-02T00:11:41.220Z,813.26
2017-05-02T00:11:45.650Z,813.26
2017-05-02T00:11:49.966Z,813.3
2017-05-02T00:11:54.158Z,813.26
2017-05-02T00:11:58.590Z,813.28
2017-05-02T00:12:03.019Z,813.27
2017-05-02T00:12:07.451Z,813.27
2017-05-02T00:12:11.860Z,813.26
2017-05-02T00:12:15.930Z,813.27
2017-05-02T00:12:20.355Z,813.25
2017-05-02T00:12:24.790Z,813.25
2017-05-02T00:12:29.225Z,813.25
2017-05-02T00:12:33.649Z,813.27
2017-05-02T00:12:38.081Z,813.22
2017-05-02T00:12:42.403Z,813.21
2017-05-02T00:12:46.721Z,813.22
2017-05-02T00:12:51.036Z,813.25
2017-05-02T00:12:55.344Z,813.26
2017-05-02T00:12:59.774Z,813.27
2017-05-02T00:13:04.213Z,813.26
2017-05-02T00:13:08.642Z,813.25
2017-05-02T00:13:12.845Z,813.27
2017-05-02T00:13:17.282Z,813.28
2017-05-02T00:13:21.716Z,813.29
2017-05-02T00:13:26.160Z,813.22
2017-05-02T00:13:30.602Z,813.28
2017-05-02T00:13:35.041Z,813.29
2017-05-02T00:13:39.412Z,813.29
2017-05-02T00:13:43.609Z,813.29
2017-05-02T00:13:48.048Z,813.28
2017-05-02T00:13:52.361Z,813.26
2017-05-02T00:13:56.795Z,813.29
2017-05-02T00:14:01.109Z,813.29
2017-05-02T00:14:05.643Z,813.29
2017-05-02T00:14:09.842Z,813.3
2017-05-02T00:14:14.080Z,813.3
2017-05-02T00:14:18.528Z,813.26
2017-05-02T00:14:22.967Z,813.29
2017-05-02T00:14:27.277Z,813.34
2017-05-02T00:14:31.707Z,813.33
2017-05-02T00:14:36.144Z,813.31
2017-05-02T00:14:40.580Z,813.32
2017-05-02T00:14:45.013Z,813.32
2017-05-02T00:14:49.324Z,813.31
2017-05-02T00:14:53.754Z,813.28
2017-05-02T00:14:58.074Z,813.3
2017-05-02T00:15:02.540Z,813.34
2017-05-02T00:15:06.855Z,813.33
2017-05-02T00:15:11.285Z,813.3
2017-05-02T00:15:15.600Z,813.31
2017-05-02T00:15:20.024Z,813.32
2017-05-02T00:15:24.450Z,813.31
2017-05-02T00:15:28.890Z,813.33
2017-05-02T00:15:33.347Z,813.29
2017-05-02T00:15:37.655Z,813.29
2017-05-02T00:15:42.080Z,813.28
2017-05-02T00:15:46.504Z,813.27
2017-05-02T00:15:50.831Z,813.27
2017-05-02T00:15:55.171Z,813.28
2017-05-02T00:15:59.482Z,813.26
2017-05-02T00:16:04.075Z,813.26
2017-05-02T00:16:08.399Z,813.3
2017-05-02T00:16:12.712Z,813.26
2017-05-02T00:16:17.145Z,813.23
2017-05-02T00:16:21.572Z,813.27
2017-05-02T00:16:25.760Z,813.29
2017-05-02T00:16:30.186Z,813.27
2017-05-02T00:16:34.619Z,813.26
2017-05-02T00:16:39.044Z,813.26
2017-05-02T00:16:43.484Z,813.27
2017-05-02T00:16:47.916Z,813.27
2017-05-02T00:16:52.238Z,813.3
2017-05-02T00:16:56.428Z,813.29
2017-05-02T00:17:00.851Z,813.28
2017-05-02T00:17:05.542Z,813.29
2017-05-02T00:17:09.978Z,813.29
2017-05-02T00:17:14.173Z,813.26
2017-05-02T00:17:18.366Z,813.27
2017-05-02T00:17:22.673Z,813.27
2017-05-02T00:17:27.108Z,813.26
2017-05-02T00:17:31.535Z,813.31
2017-05-02T00:17:35.850Z,813.26
2017-05-02T00:17:40.175Z,813.25
2017-05-02T00:17:44.630Z,813.29
2017-05-02T00:17:49.064Z,813.24
2017-05-02T00:17:53.376Z,813.25
2017-05-02T00:17:57.809Z,813.25
2017-05-02T00:18:02.250Z,813.23
2017-05-02T00:18:06.568Z,813.25
2017-05-02T00:18:10.875Z,813.25
2017-05-02T00:18:15.079Z,813.26
2017-05-02T00:18:19.559Z,813.28
2017-05-02T00:18:23.871Z,813.22
2017-05-02T00:18:28.314Z,813.23
2017-05-02T00:18:32.749Z,813.29
2017-05-02T00:18:37.188Z,813.26
2017-05-02T00:18:41.621Z,813.28
2017-05-02T00:18:45.938Z,813.27
2017-05-02T00:18:50.364Z,813.27
2017-05-02T00:18:54.797Z,813.25
2017-05-02T00:18:59.005Z,813.24
2017-05-02T00:19:03.311Z,813.25
2017-05-02T00:19:07.619Z,813.26
2017-05-02T00:19:11.706Z,813.19
2017-05-02T00:19:16.025Z,813.23
2017-05-02T00:19:20.463Z,813.25
2017-05-02T00:19:24.907Z,813.24
2017-05-02T00:19:29.346Z,813.23
2017-05-02T00:19:33.775Z,813.23
2017-05-02T00:19:38.213Z,813.24
2017-05-02T00:19:42.640Z,813.25
2017-05-02T00:19:46.962Z,813.26
2017-05-02T00:19:51.280Z,813.27
2017-05-02T00:19:55.589Z,813.27
2017-05-02T00:19:59.812Z,813.28
2017-05-02T00:20:04.247Z,813.28
2017-05-02T00:20:08.582Z,813.28
2017-05-02T00:20:12.886Z,813.26
2017-05-02T00:20:17.329Z,813.25
2017-05-02T00:20:21.755Z,813.28
2017-05-02T00:20:26.072Z,813.29
2017-05-02T00:20:30.505Z,813.28
2017-05-02T00:20:34.939Z,813.27
2017-05-02T00:20:39.363Z,813.26
2017-05-02T00:20:43.785Z,813.27
2017-05-02T00:20:48.223Z,813.27
2017-05-02T00:20:52.437Z,813.27
2017-05-02T00:20:56.632Z,813.28
2017-05-02T00:21:00.952Z,813.27
2017-05-02T00:21:05.583Z,813.25
2017-05-02T00:21:09.898Z,813.26
2017-05-02T00:21:14.327Z,813.26
2017-05-02T00:21:18.767Z,813.23
2017-05-02T00:21:23.080Z,813.25
2017-05-02T00:21:27.506Z,813.27
2017-05-02T00:21:31.936Z,813.25
2017-05-02T00:21:36.369Z,813.24
2017-05-02T00:21:40.678Z,813.25
2017-05-02T00:21:44.868Z,813.24
2017-05-02T00:21:49.298Z,813.26
2017-05-02T00:21:53.732Z,813.24
2017-05-02T00:21:58.043Z,813.27
2017-05-02T00:22:02.474Z,813.25
2017-05-02T00:22:06.783Z,813.27
2017-05-02T00:22:11.090Z,813.27
2017-05-02T00:22:15.514Z,813.24
2017-05-02T00:22:19.938Z,813.26
2017-05-02T00:22:24.366Z,813.29
2017-05-02T00:22:28.695Z,813.3
2017-05-02T00:22:33.115Z,813.28
2017-05-02T00:22:37.429Z,813.27
2017-05-02T00:22:41.502Z,813.26
2017-05-02T00:22:45.932Z,813.24
2017-05-02T00:22:50.234Z,813.27
2017-05-02T00:22:54.663Z,813.29
2017-05-02T00:22:59.107Z,813.24
2017-05-02T00:23:03.474Z,813.28
2017-05-02T00:23:07.912Z,813.3
2017-05-02T00:23:12.229Z,813.25
2017-05-02T00:23:16.670Z,813.22
2017-05-02T00:23:21.105Z,813.24
2017-05-02T00:23:25.535Z,813.25
2017-05-02T00:23:29.973Z,813.25
2017-05-02T00:23:34.335Z,813.24
2017-05-02T00:23:38.765Z,813.26
2017-05-02T00:23:42.959Z,813.3
2017-05-02T00:23:47.391Z,813.29
2017-05-02T00:23:51.813Z,813.29
2017-05-02T00:23:56.237Z,813.27
2017-05-02T00:24:00.541Z,813.28
2017-05-02T00:24:04.971Z,813.27
2017-05-02T00:24:09.404Z,813.28
2017-05-02T00:24:13.833Z,813.27
2017-05-02T00:24:18.146Z,813.3
2017-05-02T00:24:22.572Z,813.26
2017-05-02T00:24:27.033Z,813.25
2017-05-02T00:24:31.454Z,813.25
2017-05-02T00:24:35.639Z,813.29
2017-05-02T00:24:39.954Z,813.35
2017-05-02T00:24:44.304Z,813.33
2017-05-02T00:24:48.613Z,813.35
2017-05-02T00:24:53.037Z,813.33
2017-05-02T00:24:57.516Z,813.34
2017-05-02T00:25:02.006Z,813.35
2017-05-02T00:25:06.431Z,813.33
2017-05-02T00:25:10.744Z,813.33
2017-05-02T00:25:14.970Z,813.29
2017-05-02T00:25:19.401Z,813.31
2017-05-02T00:25:23.822Z,813.35
2017-05-02T00:25:28.256Z,813.35
2017-05-02T00:25:32.688Z,813.33
2017-05-02T00:25:37.115Z,813.3
2017-05-02T00:25:41.427Z,813.33
2017-05-02T00:25:45.856Z,813.34
2017-05-02T00:25:50.294Z,813.3
2017-05-02T00:25:54.722Z,813.31
2017-05-02T00:25:59.046Z,813.32
2017-05-02T00:26:03.358Z,813.32
2017-05-02T00:26:07.785Z,813.34
2017-05-02T00:26:12.214Z,813.34
2017-05-02T00:26:16.535Z,813.33
2017-05-02T00:26:20.969Z,813.32
2017-05-02T00:26:25.396Z,813.35
2017-05-02T00:26:29.820Z,813.33
2017-05-02T00:26:34.302Z,813.32
2017-05-02T00:26:38.726Z,813.33
2017-05-02T00:26:43.033Z,813.31
2017-05-02T00:26:47.459Z,813.32
2017-05-02T00:26:51.782Z,813.32
2017-05-02T00:26:56.251Z,813.31
2017-05-02T00:27:00.681Z,813.3
2017-05-02T00:27:05.104Z,813.31
2017-05-02T00:27:09.308Z,813.28
2017-05-02T00:27:13.991Z,813.27
2017-05-02T00:27:18.414Z,813.32
2017-05-02T00:27:22.848Z,813.31
2017-05-02T00:27:27.281Z,813.32
2017-05-02T00:27:31.709Z,813.31
2017-05-02T00:27:36.137Z,813.31
2017-05-02T00:27:40.575Z,813.31
2017-05-02T00:27:45.013Z,813.3
2017-05-02T00:27:49.332Z,813.29
2017-05-02T00:27:53.756Z,813.28
2017-05-02T00:27:58.066Z,813.3
2017-05-02T00:28:02.500Z,813.31
2017-05-02T00:28:06.825Z,813.3
2017-05-02T00:28:11.254Z,813.27
2017-05-02T00:28:15.682Z,813.25
2017-05-02T00:28:19.994Z,813.28
2017-05-02T00:28:24.426Z,813.25
2017-05-02T00:28:28.862Z,813.29
2017-05-02T00:28:33.295Z,813.29
2017-05-02T00:28:37.621Z,813.3
2017-05-02T00:28:41.979Z,813.29
2017-05-02T00:28:46.403Z,813.29
2017-05-02T00:28:50.594Z,813.3
2017-05-02T00:28:55.018Z,813.33
2017-05-02T00:28:59.335Z,813.28
2017-05-02T00:29:03.672Z,813.26
2017-05-02T00:29:07.988Z,813.29
2017-05-02T00:29:12.432Z,813.28
2017-05-02T00:29:16.637Z,813.29
2017-05-02T00:29:21.070Z,813.31
2017-05-02T00:29:25.505Z,813.21
2017-05-02T00:29:29.940Z,813.24
2017-05-02T00:29:34.375Z,813.22
2017-05-02T00:29:38.691Z,813.2
2017-05-02T00:29:43.123Z,813.24
2017-05-02T00:29:47.550Z,813.29
2017-05-02T00:29:52.019Z,813.3
2017-05-02T00:29:56.339Z,813.3
2017-05-02T00:30:00.655Z,813.29
2017-05-02T00:30:04.970Z,813.29
2017-05-02T00:30:09.165Z,813.29
2017-05-02T00:30:13.472Z,813.29
2017-05-02T00:30:17.898Z,813.28
2017-05-02T00:30:22.329Z,813.27
2017-05-02T00:30:26.759Z,813.3
2017-05-02T00:30:31.183Z,813.27
2017-05-02T00:30:35.617Z,813.24
2017-05-02T00:30:40.048Z,813.25
2017-05-02T00:30:44.479Z,813.25
2017-05-02T00:30:48.904Z,813.24
2017-05-02T00:30:53.106Z,813.26
2017-05-02T00:30:57.545Z,813.28
2017-05-02T00:31:02.118Z,813.31
2017-05-02T00:31:06.547Z,813.32
2017-05-02T00:31:10.972Z,813.24
2017-05-02T00:31:15.289Z,813.28
2017-05-02T00:31:19.716Z,813.29
2017-05-02T00:31:24.139Z,813.28
2017-05-02T00:31:28.584Z,813.26
2017-05-02T00:31:33.012Z,813.27
2017-05-02T00:31:37.436Z,813.24
2017-05-02T00:31:41.749Z,813.26
2017-05-02T00:31:46.071Z,813.32
2017-05-02T00:31:50.500Z,813.31
2017-05-02T00:31:54.926Z,813.32
2017-05-02T00:31:59.384Z,813.32
2017-05-02T00:32:04.116Z,813.33
2017-05-02T00:32:08.436Z,813.28
2017-05-02T00:32:12.754Z,813.34
2017-05-02T00:32:17.190Z,813.34
2017-05-02T00:32:21.620Z,813.34
2017-05-02T00:32:25.809Z,813.33
2017-05-02T00:32:30.243Z,813.38
2017-05-02T00:32:34.559Z,813.33
2017-05-02T00:32:38.996Z,813.33
2017-05-02T00:32:43.185Z,813.37
2017-05-02T00:32:47.613Z,813.36
2017-05-02T00:32:51.925Z,813.35
2017-05-02T00:32:56.347Z,813.34
2017-05-02T00:33:00.786Z,813.37
2017-05-02T00:33:05.196Z,813.32
2017-05-02T00:33:09.396Z,813.33
2017-05-02T00:33:13.714Z,813.31
2017-05-02T00:33:18.141Z,813.31
2017-05-02T00:33:22.576Z,813.34
2017-05-02T00:33:26.899Z,813.32
2017-05-02T00:33:31.341Z,813.34
2017-05-02T00:33:35.534Z,813.38
2017-05-02T00:33:39.725Z,813.39
2017-05-02T00:33:44.166Z,813.37
2017-05-02T00:33:48.598Z,813.37
2017-05-02T00:33:53.023Z,813.35
2017-05-02T00:33:57.460Z,813.37
2017-05-02T00:34:01.909Z,813.37
2017-05-02T00:34:06.349Z,813.4
2017-05-02T00:34:10.778Z,813.34
2017-05-02T00:34:15.101Z,813.36
2017-05-02T00:34:19.545Z,813.38
2017-05-02T00:34:23.856Z,813.38
2017-05-02T00:34:28.286Z,813.39
2017-05-02T00:34:32.716Z,813.35
2017-05-02T00:34:37.031Z,813.36
2017-05-02T00:34:41.335Z,813.36
2017-05-02T00:34:45.758Z,813.39
2017-05-02T00:34:50.192Z,813.39
2017-05-02T00:34:54.633Z,813.42
2017-05-02T00:34:59.064Z,813.35
2017-05-02T00:35:03.490Z,813.37
2017-05-02T00:35:07.803Z,813.35
2017-05-02T00:35:11.880Z,813.41
2017-05-02T00:35:16.330Z,813.35
2017-05-02T00:35:20.756Z,813.36
2017-05-02T00:35:25.068Z,813.38
2017-05-02T00:35:29.497Z,813.41
2017-05-02T00:35:33.808Z,813.42
2017-05-02T00:35:38.237Z,813.4
2017-05-02T00:35:42.664Z,813.38
2017-05-02T00:35:47.096Z,813.38
2017-05-02T00:35:51.524Z,813.43
2017-05-02T00:35:55.951Z,813.42
2017-05-02T00:36:00.381Z,813.44
2017-05-02T00:36:05.066Z,813.41
2017-05-02T00:36:09.383Z,813.45
2017-05-02T00:36:13.455Z,813.45
2017-05-02T00:36:17.772Z,813.44
2017-05-02T00:36:21.970Z,813.45
2017-05-02T00:36:26.397Z,813.43
2017-05-02T00:36:30.823Z,813.46
2017-05-02T00:36:35.260Z,813.45
2017-05-02T00:36:39.689Z,813.44
2017-05-02T00:36:44.119Z,813.46
2017-05-02T00:36:48.547Z,813.42
2017-05-02T00:36:52.976Z,813.45
2017-05-02T00:36:57.401Z,813.47
2017-05-02T00:37:01.837Z,813.45
2017-05-02T00:37:06.261Z,813.48
2017-05-02T00:37:10.695Z,813.49
2017-05-02T00:37:14.890Z,813.48
2017-05-02T00:37:19.320Z,813.5
2017-05-02T00:37:23.743Z,813.49
2017-05-02T00:37:28.166Z,813.46
2017-05-02T00:37:32.604Z,813.5
2017-05-02T00:37:37.034Z,813.56
2017-05-02T00:37:41.242Z,813.53
2017-05-02T00:37:45.681Z,813.53
2017-05-02T00:37:50.125Z,813.57
2017-05-02T00:37:54.550Z,813.51
2017-05-02T00:37:58.988Z,813.53
2017-05-02T00:38:03.401Z,813.52
2017-05-02T00:38:07.725Z,813.53
2017-05-02T00:38:11.807Z,813.5
2017-05-02T00:38:16.127Z,813.48
2017-05-02T00:38:20.558Z,813.49
2017-05-02T00:38:24.999Z,813.49
2017-05-02T00:38:29.423Z,813.51
2017-05-02T00:38:33.743Z,813.51
2017-05-02T00:38:38.184Z,813.5
2017-05-02T00:38:42.621Z,813.53
2017-05-02T00:38:47.051Z,813.52
2017-05-02T00:38:51.369Z,813.5
2017-05-02T00:38:55.796Z,813.51
2017-05-02T00:39:00.239Z,813.49
2017-05-02T00:39:04.667Z,813.5
2017-05-02T00:39:09.094Z,813.51
2017-05-02T00:39:13.526Z,813.54
2017-05-02T00:39:18.016Z,813.54
2017-05-02T00:39:22.443Z,813.51
2017-05-02T00:39:26.887Z,813.53
2017-05-02T00:39:31.315Z,813.52
2017-05-02T00:39:35.756Z,813.52
2017-05-02T00:39:40.216Z,813.56
2017-05-02T00:39:44.644Z,813.54
2017-05-02T00:39:48.952Z,813.53
2017-05-02T00:39:53.381Z,813.57
2017-05-02T00:39:57.696Z,813.57
2017-05-02T00:40:02.013Z,813.58
2017-05-02T00:40:06.331Z,813.57
2017-05-02T00:40:10.637Z,813.55
2017-05-02T00:40:15.064Z,813.6
2017-05-02T00:40:19.488Z,813.57
2017-05-02T00:40:23.920Z,813.55
2017-05-02T00:40:28.384Z,813.6
2017-05-02T00:40:32.812Z,813.59
2017-05-02T00:40:37.241Z,813.59
2017-05-02T00:40:41.558Z,813.55
2017-05-02T00:40:45.902Z,813.59
2017-05-02T00:40:50.336Z,813.6
2017-05-02T00:40:54.646Z,813.62
2017-05-02T00:40:59.103Z,813.58
2017-05-02T00:41:03.534Z,813.58
2017-05-02T00:41:07.844Z,813.62
2017-05-02T00:41:12.280Z,813.55
2017-05-02T00:41:16.243Z,813.63
2017-05-02T00:41:20.667Z,813.62
2017-05-02T00:41:24.980Z,813.62
2017-05-02T00:41:29.288Z,813.6
2017-05-02T00:41:33.721Z,813.59
2017-05-02T00:41:38.143Z,813.62
2017-05-02T00:41:42.451Z,813.65
2017-05-02T00:41:46.883Z,813.65
2017-05-02T00:41:51.193Z,813.64
2017-05-02T00:41:55.628Z,813.63
2017-05-02T00:42:00.053Z,813.67
2017-05-02T00:42:04.640Z,813.64
2017-05-02T00:42:08.950Z,813.68
2017-05-02T00:42:13.255Z,813.61
2017-05-02T00:42:18.487Z,813.64
2017-05-02T00:42:22.922Z,813.64
2017-05-02T00:42:27.246Z,813.63
2017-05-02T00:42:31.551Z,813.67
2017-05-02T00:42:35.987Z,813.65
2017-05-02T00:42:40.186Z,813.67
2017-05-02T00:42:44.491Z,813.67
2017-05-02T00:42:48.921Z,813.69
2017-05-02T00:42:53.356Z,813.64
2017-05-02T00:42:57.791Z,813.68
2017-05-02T00:43:02.523Z,813.7
2017-05-02T00:43:06.953Z,813.65
2017-05-02T00:43:11.397Z,813.68
2017-05-02T00:43:15.719Z,813.68
2017-05-02T00:43:20.150Z,813.69
2017-05-02T00:43:24.352Z,813.67
2017-05-02T00:43:28.789Z,813.66
2017-05-02T00:43:33.223Z,813.65
2017-05-02T00:43:37.542Z,813.67
2017-05-02T00:43:41.735Z,813.65
2017-05-02T00:43:46.165Z,813.69
2017-05-02T00:43:50.595Z,813.69
2017-05-02T00:43:55.030Z,813.65
2017-05-02T00:43:59.463Z,813.66
2017-05-02T00:44:03.773Z,813.66
2017-05-02T00:44:08.131Z,813.67
2017-05-02T00:44:12.566Z,813.68
2017-05-02T00:44:16.639Z,813.68
2017-05-02T00:44:21.079Z,813.68
2017-05-02T00:44:25.509Z,813.7
2017-05-02T00:44:29.943Z,813.7
2017-05-02T00:44:34.365Z,813.7
2017-05-02T00:44:38.795Z,813.7
2017-05-02T00:44:43.107Z,813.69
2017-05-02T00:44:47.530Z,813.68
2017-05-02T00:44:51.836Z,813.68
2017-05-02T00:44:56.267Z,813.68
2017-05-02T00:45:00.736Z,813.67
2017-05-02T00:45:05.172Z,813.69
2017-05-02T00:45:09.359Z,813.7
2017-05-02T00:45:13.440Z,813.7
2017-05-02T00:45:17.871Z,813.7
2017-05-02T00:45:22.298Z,813.68
2017-05-02T00:45:26.726Z,813.69
2017-05-02T00:45:31.153Z,813.66
2017-05-02T00:45:35.617Z,813.69
2017-05-02T00:45:40.047Z,813.72
2017-05-02T00:45:44.365Z,813.69
2017-05-02T00:45:48.809Z,813.65
2017-05-02T00:45:53.238Z,813.69
2017-05-02T00:45:57.678Z,813.7
2017-05-02T00:46:02.102Z,813.66
2017-05-02T00:46:06.414Z,813.68
2017-05-02T00:46:10.607Z,813.69
2017-05-02T00:46:15.036Z,813.66
2017-05-02T00:46:19.460Z,813.69
2017-05-02T00:46:23.886Z,813.72
2017-05-02T00:46:28.351Z,813.69
2017-05-02T00:46:32.670Z,813.69
2017-05-02T00:46:36.973Z,813.67
2017-05-02T00:46:41.284Z,813.7
2017-05-02T00:46:45.491Z,813.7
2017-05-02T00:46:49.803Z,813.69
2017-05-02T00:46:54.232Z,813.73
2017-05-02T00:46:58.660Z,813.71
2017-05-02T00:47:03.144Z,813.71
2017-05-02T00:47:07.458Z,813.72
2017-05-02T00:47:11.766Z,813.75
2017-05-02T00:47:16.083Z,813.73
2017-05-02T00:47:20.810Z,813.73
2017-05-02T00:47:25.120Z,813.68
2017-05-02T00:47:29.548Z,813.69
2017-05-02T00:47:33.991Z,813.71
2017-05-02T00:47:38.418Z,813.74
2017-05-02T00:47:42.726Z,813.75
2017-05-02T00:47:47.154Z,813.74
2017-05-02T00:47:51.634Z,813.76
2017-05-02T00:47:56.072Z,813.7
2017-05-02T00:48:00.494Z,813.76
2017-05-02T00:48:04.925Z,813.77
2017-05-02T00:48:09.120Z,813.73
2017-05-02T00:48:13.458Z,813.72
2017-05-02T00:48:17.764Z,813.73
2017-05-02T00:48:22.196Z,813.72
2017-05-02T00:48:26.638Z,813.7
2017-05-02T00:48:31.068Z,813.73
2017-05-02T00:48:35.385Z,813.77
2017-05-02T00:48:39.815Z,813.75
2017-05-02T00:48:44.131Z,813.73
2017-05-02T00:48:48.566Z,813.77
2017-05-02T00:48:53.006Z,813.78
2017-05-02T00:48:57.432Z,813.78
2017-05-02T00:49:01.911Z,813.79
2017-05-02T00:49:06.375Z,813.8
2017-05-02T00:49:10.687Z,813.79
2017-05-02T00:49:15.127Z,813.77
2017-05-02T00:49:19.572Z,813.78
2017-05-02T00:49:24.004Z,813.76
2017-05-02T00:49:28.424Z,813.79
2017-05-02T00:49:32.732Z,813.76
2017-05-02T00:49:37.165Z,813.78
2017-05-02T00:49:41.585Z,813.79
2017-05-02T00:49:46.006Z,813.82
2017-05-02T00:49:50.433Z,813.8
2017-05-02T00:49:54.783Z,813.85
2017-05-02T00:49:59.208Z,813.8
2017-05-02T00:50:03.813Z,813.81
2017-05-02T00:50:08.252Z,813.8
2017-05-02T00:50:12.715Z,813.82
2017-05-02T00:50:17.027Z,813.8
2017-05-02T00:50:21.459Z,813.83
2017-05-02T00:50:25.777Z,813.84
2017-05-02T00:50:30.239Z,813.84
2017-05-02T00:50:34.544Z,813.84
2017-05-02T00:50:38.852Z,813.85
2017-05-02T00:50:43.283Z,813.78
2017-05-02T00:50:47.717Z,813.82
2017-05-02T00:50:52.021Z,813.84
2017-05-02T00:50:56.447Z,813.85
2017-05-02T00:51:00.876Z,813.83
2017-05-02T00:51:05.305Z,813.85
2017-05-02T00:51:09.613Z,813.87
2017-05-02T00:51:14.041Z,813.87
2017-05-02T00:51:18.354Z,813.89
2017-05-02T00:51:22.798Z,813.89
2017-05-02T00:51:27.232Z,813.89
2017-05-02T00:51:31.657Z,813.89
2017-05-02T00:51:36.093Z,813.92
2017-05-02T00:51:40.560Z,813.9
2017-05-02T00:51:44.985Z,813.93
2017-05-02T00:51:49.421Z,813.88
2017-05-02T00:51:53.851Z,813.87
2017-05-02T00:51:58.284Z,813.93
2017-05-02T00:52:02.762Z,813.97
2017-05-02T00:52:07.106Z,813.92
2017-05-02T00:52:11.537Z,813.93
2017-05-02T00:52:15.854Z,813.93
2017-05-02T00:52:20.285Z,813.96
2017-05-02T00:52:24.714Z,813.93
2017-05-02T00:52:29.183Z,813.96
2017-05-02T00:52:33.611Z,813.99
2017-05-02T00:52:37.937Z,813.95
2017-05-02T00:52:42.255Z,813.96
2017-05-02T00:52:46.686Z,813.98
2017-05-02T00:52:51.114Z,813.96
2017-05-02T00:52:55.539Z,814
2017-05-02T00:52:59.981Z,814
2017-05-02T00:53:04.514Z,813.98
2017-05-02T00:53:08.828Z,813.97
2017-05-02T00:53:13.257Z,814
2017-05-02T00:53:17.700Z,814
2017-05-02T00:53:22.131Z,813.98
2017-05-02T00:53:26.564Z,813.97
2017-05-02T00:53:30.998Z,814
2017-05-02T00:53:35.438Z,814
2017-05-02T00:53:39.860Z,813.98
2017-05-02T00:53:44.187Z,814
2017-05-02T00:53:48.505Z,814.03
2017-05-02T00:53:52.948Z,813.99
2017-05-02T00:53:57.382Z,813.98
2017-05-02T00:54:01.912Z,814.02
2017-05-02T00:54:06.221Z,814.01
2017-05-02T00:54:10.421Z,814
2017-05-02T00:54:14.862Z,814
2017-05-02T00:54:19.293Z,814.01
2017-05-02T00:54:23.732Z,814
2017-05-02T00:54:28.217Z,814.05
2017-05-02T00:54:32.650Z,814.03
2017-05-02T00:54:37.082Z,814.05
2017-05-02T00:54:41.269Z,814.02
2017-05-02T00:54:45.702Z,814.04
2017-05-02T00:54:50.129Z,814.04
2017-05-02T00:54:54.549Z,814.03